createdAt,value
2023-04-03T00:01:20.080Z,97.43
2023-04-03T00:03:48.783Z,99.12
2023-04-03T00:06:17.257Z,98.88
2023-04-03T00:08:45.120Z,98.25
2023-04-03T00:11:13.008Z,97.58
2023-04-03T00:13:41.463Z,98.38
2023-04-03T00:16:11.109Z,97.62
2023-04-03T00:18:39.752Z,97.07
2023-04-03T00:21:08.378Z,98.03
2023-04-03T00:23:36.522Z,98.04
2023-04-03T00:26:04.805Z,97.32
2023-04-03T00:28:32.528Z,97.71
2023-04-03T00:31:01.322Z,98.56
2023-04-03T00:33:29.259Z,99.05
2023-04-03T00:35:57.738Z,97.30
2023-04-03T00:38:25.664Z,96.77
2023-04-03T00:40:54.084Z,96.34
2023-04-03T00:43:24.697Z,98.18
2023-04-03T00:45:57.575Z,97.75
2023-04-03T00:48:47.771Z,97.82
2023-04-03T00:51:19.409Z,97.99
2023-04-03T00:54:06.918Z,99.64
2023-04-03T00:56:35.827Z,97.72
2023-04-03T00:59:11.593Z,97.87
2023-04-03T01:01:41.500Z,98.48
2023-04-03T01:04:29.952Z,98.70
2023-04-03T01:07:03.429Z,98.69
2023-04-03T01:09:32.106Z,97.98
2023-04-03T01:12:19.576Z,97.72
2023-04-03T01:14:51.293Z,99.28
2023-04-03T01:17:41.883Z,99.06
2023-04-03T01:20:36.206Z,97.56
2023-04-03T01:23:32.223Z,98.39
2023-04-03T01:26:00.189Z,98.39
2023-04-03T01:28:32.710Z,98.85
2023-04-03T01:31:15.092Z,98.06
2023-04-03T01:33:45.041Z,99.04
2023-04-03T01:36:17.731Z,99.77
2023-04-03T01:38:46.397Z,99.37
2023-04-03T01:41:14.170Z,98.85
2023-04-03T01:43:43.873Z,99.64
2023-04-03T01:46:11.940Z,100.00
2023-04-03T01:48:41.127Z,99.84
2023-04-03T01:51:09.600Z,99.40
2023-04-03T01:53:37.633Z,100.00
2023-04-03T01:56:06.226Z,99.60
2023-04-03T01:58:35.055Z,100.00
2023-04-03T02:01:03.522Z,100.00
2023-04-03T02:03:32.259Z,99.43
2023-04-03T02:06:00.122Z,100.00
2023-04-03T02:08:27.946Z,100.00
2023-04-03T02:10:56.162Z,100.00
2023-04-03T02:13:24.147Z,100.00
2023-04-03T02:15:51.837Z,100.00
2023-04-03T02:18:20.078Z,100.00
2023-04-03T02:20:48.947Z,100.00
2023-04-03T02:23:16.996Z,100.00
2023-04-03T02:25:45.392Z,100.00
2023-04-03T02:28:13.452Z,100.00
2023-04-03T02:30:41.073Z,100.00
2023-04-03T02:33:09.474Z,100.00
2023-04-03T02:35:38.319Z,100.00
2023-04-03T02:38:06.912Z,100.00
2023-04-03T02:40:35.513Z,100.00
2023-04-03T02:43:03.918Z,100.00
2023-04-03T02:45:31.770Z,100.00
2023-04-03T02:47:59.881Z,100.00
2023-04-03T02:50:27.548Z,100.00
2023-04-03T02:52:55.692Z,100.00
2023-04-03T02:55:23.534Z,100.00
2023-04-03T02:57:54.325Z,100.00
2023-04-03T03:00:22.213Z,100.00
2023-04-03T03:02:50.822Z,100.00
2023-04-03T03:05:19.230Z,100.00
2023-04-03T03:07:47.216Z,100.00
2023-04-03T03:10:15.420Z,100.00
2023-04-03T03:12:43.586Z,100.00
2023-04-03T03:15:11.901Z,100.00
2023-04-03T03:17:40.120Z,100.00
2023-04-03T03:20:08.536Z,100.00
2023-04-03T03:22:37.404Z,100.00
2023-04-03T03:25:06.062Z,100.00
2023-04-03T03:27:34.523Z,100.00
2023-04-03T03:30:02.252Z,100.00
2023-04-03T03:32:31.052Z,100.00
2023-04-03T03:34:58.926Z,100.00
2023-04-03T03:37:28.361Z,100.00
2023-04-03T03:39:56.447Z,100.00
2023-04-03T03:42:24.859Z,100.00
2023-04-03T03:44:53.503Z,100.00
2023-04-03T03:47:22.336Z,100.00
2023-04-03T03:49:50.167Z,100.00
2023-04-03T03:52:18.695Z,100.00
2023-04-03T03:54:46.629Z,100.00
2023-04-03T03:57:14.640Z,100.00
2023-04-03T03:59:42.947Z,100.00
2023-04-03T04:02:12.636Z,100.00
2023-04-03T04:04:41.171Z,100.00
2023-04-03T04:07:09.209Z,100.00
2023-04-03T04:09:37.567Z,100.00
2023-04-03T04:12:05.886Z,100.00
2023-04-03T04:14:34.615Z,100.00
2023-04-03T04:17:03.721Z,100.00
2023-04-03T04:19:32.281Z,100.00
2023-04-03T04:22:00.927Z,100.00
2023-04-03T04:24:29.636Z,100.00
2023-04-03T04:26:58.696Z,100.00
2023-04-03T04:29:26.981Z,100.00
2023-04-03T04:35:03.336Z,100.00
2023-04-03T04:37:35.331Z,100.00
2023-04-03T04:40:04.452Z,100.00
2023-04-03T04:42:33.374Z,100.00
2023-04-03T04:45:01.607Z,100.00
2023-04-03T04:47:30.856Z,100.00
2023-04-03T04:49:58.647Z,100.00
2023-04-03T04:52:28.057Z,100.00
2023-04-03T04:54:56.748Z,100.00
2023-04-03T04:57:25.622Z,100.00
2023-04-03T04:59:54.270Z,100.00
2023-04-03T05:02:22.724Z,99.03
2023-04-03T05:04:51.710Z,100.00
2023-04-03T05:07:23.696Z,98.24
2023-04-03T05:09:51.482Z,99.07
2023-04-03T05:12:20.190Z,97.05
2023-04-03T05:14:55.757Z,97.12
2023-04-03T05:17:24.179Z,96.57
2023-04-03T05:19:55.515Z,95.86
2023-04-03T05:22:25.666Z,96.34
2023-04-03T05:24:58.047Z,95.20
2023-04-03T05:27:29.852Z,93.90
2023-04-03T05:30:01.746Z,93.06
2023-04-03T05:32:31.378Z,94.86
2023-04-03T05:35:13.718Z,92.00
2023-04-03T05:37:43.610Z,92.38
2023-04-03T05:40:13.211Z,91.28
2023-04-03T05:42:45.743Z,91.08
2023-04-03T05:45:16.709Z,92.48
2023-04-03T05:47:45.267Z,91.04
2023-04-03T05:50:13.604Z,88.53
2023-04-03T05:52:46.230Z,90.83
2023-04-03T05:55:16.927Z,89.85
2023-04-03T05:57:46.173Z,90.94
2023-04-03T06:00:16.838Z,91.55
2023-04-03T06:02:51.636Z,89.78
2023-04-03T06:05:23.946Z,92.02
2023-04-03T06:07:52.727Z,91.60
2023-04-03T06:10:21.485Z,89.89
2023-04-03T06:12:50.197Z,91.34
2023-04-03T06:15:18.832Z,90.33
2023-04-03T06:17:47.434Z,93.83
2023-04-03T06:20:15.560Z,90.94
2023-04-03T06:22:44.172Z,87.71
2023-04-03T06:25:13.726Z,89.42
2023-04-03T06:27:42.392Z,87.46
2023-04-03T06:30:11.267Z,89.92
2023-04-03T06:32:39.782Z,87.91
2023-04-03T06:35:07.869Z,88.76
2023-04-03T06:37:36.892Z,88.29
2023-04-03T06:40:06.012Z,85.68
2023-04-03T06:42:34.418Z,85.25
2023-04-03T06:45:12.597Z,87.70
2023-04-03T06:47:41.071Z,86.07
2023-04-03T06:50:12.823Z,88.50
2023-04-03T06:52:41.632Z,88.27
2023-04-03T06:55:10.468Z,87.64
2023-04-03T06:57:39.272Z,90.27
2023-04-03T07:00:08.584Z,87.31
2023-04-03T07:02:36.737Z,89.21
2023-04-03T07:05:07.107Z,86.33
2023-04-03T07:07:35.821Z,85.38
2023-04-03T07:10:04.336Z,85.05
2023-04-03T07:12:32.996Z,86.48
2023-04-03T07:15:01.142Z,86.65
2023-04-03T07:17:29.549Z,87.27
2023-04-03T07:19:57.612Z,87.21
2023-04-03T07:22:26.193Z,86.68
2023-04-03T07:24:54.297Z,83.17
2023-04-03T07:27:22.488Z,83.49
2023-04-03T07:29:51.215Z,84.73
2023-04-03T07:32:19.782Z,84.68
2023-04-03T07:34:47.495Z,84.20
2023-04-03T07:37:16.107Z,84.29
2023-04-03T07:39:46.223Z,81.04
2023-04-03T07:42:14.700Z,80.92
2023-04-03T07:44:42.491Z,79.37
2023-04-03T07:47:11.346Z,80.04
2023-04-03T07:49:40.929Z,78.37
2023-04-03T07:52:10.571Z,80.04
2023-04-03T07:54:38.461Z,78.42
2023-04-03T07:57:07.132Z,80.79
2023-04-03T07:59:35.400Z,78.42
2023-04-03T08:02:06.514Z,75.94
2023-04-03T08:04:35.251Z,75.57
2023-04-03T08:07:03.953Z,77.64
2023-04-03T08:09:32.793Z,77.27
2023-04-03T08:12:01.616Z,78.87
2023-04-03T08:14:32.610Z,73.49
2023-04-03T08:17:01.902Z,73.58
2023-04-03T08:19:30.137Z,74.08
2023-04-03T08:21:59.644Z,72.44
2023-04-03T08:24:27.429Z,75.21
2023-04-03T08:26:57.143Z,69.44
2023-04-03T08:29:25.738Z,71.83
2023-04-03T08:31:55.045Z,74.41
2023-04-03T08:34:22.816Z,70.34
2023-04-03T08:36:51.660Z,69.21
2023-04-03T08:39:19.706Z,70.67
2023-04-03T08:41:49.211Z,70.77
2023-04-03T08:44:44.701Z,72.97
2023-04-03T08:47:23.104Z,67.60
2023-04-03T08:49:57.772Z,62.97
2023-04-03T08:52:58.076Z,63.22
2023-04-03T08:55:28.996Z,63.02
2023-04-03T08:58:06.589Z,62.17
2023-04-03T09:00:47.064Z,62.22
2023-04-03T09:03:18.645Z,58.29
2023-04-03T09:05:50.459Z,61.63
2023-04-03T09:08:47.454Z,59.72
2023-04-03T09:11:23.141Z,58.10
2023-04-03T09:14:04.842Z,59.15
2023-04-03T09:16:54.122Z,57.24
2023-04-03T09:19:37.739Z,58.84
2023-04-03T09:22:14.166Z,60.14
2023-04-03T09:24:43.131Z,60.66
2023-04-03T09:27:12.847Z,57.77
2023-04-03T09:29:47.520Z,56.94
2023-04-03T09:32:26.713Z,57.39
2023-04-03T09:34:59.636Z,57.35
2023-04-03T09:37:45.199Z,53.72
2023-04-03T09:40:35.947Z,53.66
2023-04-03T09:43:40.184Z,57.70
2023-04-03T09:46:32.579Z,59.79
2023-04-03T09:49:08.933Z,59.46
2023-04-03T09:51:38.993Z,60.94
2023-04-03T09:54:38.889Z,60.94
2023-04-03T09:57:14.674Z,56.12
2023-04-03T10:00:06.047Z,54.93
2023-04-03T10:02:37.942Z,56.56
2023-04-03T10:05:44.781Z,56.06
2023-04-03T10:08:31.830Z,58.14
2023-04-03T10:11:18.045Z,55.42
2023-04-03T10:14:01.304Z,54.84
2023-04-03T10:16:53.753Z,57.58
2023-04-03T10:19:40.432Z,58.37
2023-04-03T10:22:17.758Z,55.48
2023-04-03T10:24:54.287Z,55.12
2023-04-03T10:27:31.132Z,58.89
2023-04-03T10:30:06.498Z,57.81
2023-04-03T10:32:57.743Z,54.35
2023-04-03T10:35:47.388Z,54.87
2023-04-03T10:38:40.369Z,56.96
2023-04-03T10:41:27.386Z,54.88
2023-04-03T10:43:59.656Z,54.33
2023-04-03T10:46:40.755Z,51.39
2023-04-03T10:49:57.084Z,55.71
2023-04-03T10:52:51.693Z,54.27
2023-04-03T10:55:34.564Z,53.65
2023-04-03T10:58:04.626Z,54.02
2023-04-03T11:00:40.805Z,52.82
2023-04-03T11:03:34.024Z,54.32
2023-04-03T11:06:04.296Z,52.02
2023-04-03T11:08:44.067Z,52.54
2023-04-03T11:11:32.302Z,53.42
2023-04-03T11:14:04.279Z,52.91
2023-04-03T11:16:43.564Z,51.87
2023-04-03T11:19:25.072Z,53.62
2023-04-03T11:21:59.723Z,51.54
2023-04-03T11:24:31.332Z,52.91
2023-04-03T11:27:01.324Z,52.84
2023-04-03T11:29:35.948Z,53.64
2023-04-03T11:32:13.447Z,53.73
2023-04-03T11:34:47.894Z,53.47
2023-04-03T11:37:39.797Z,53.57
2023-04-03T11:40:17.460Z,48.78
2023-04-03T11:42:50.899Z,51.81
2023-04-03T11:45:28.157Z,50.71
2023-04-03T11:48:00.980Z,54.09
2023-04-03T11:50:36.870Z,50.64
2023-04-03T11:53:08.396Z,53.32
2023-04-03T11:55:56.238Z,50.80
2023-04-03T11:58:26.521Z,51.49
2023-04-03T12:00:57.018Z,51.32
2023-04-03T12:03:25.928Z,50.66
2023-04-03T12:06:15.130Z,51.65
2023-04-03T12:08:42.942Z,51.91
2023-04-03T12:11:14.641Z,51.80
2023-04-03T12:13:58.245Z,49.91
2023-04-03T12:16:35.922Z,50.24
2023-04-03T12:19:05.539Z,51.76
2023-04-03T12:22:00.632Z,50.17
2023-04-03T12:24:34.104Z,49.17
2023-04-03T12:27:04.117Z,50.91
2023-04-03T12:29:42.617Z,53.00
2023-04-03T12:32:33.963Z,48.88
2023-04-03T12:35:37.611Z,50.49
2023-04-03T12:38:43.354Z,48.47
2023-04-03T12:41:49.334Z,51.90
2023-04-03T12:44:38.523Z,49.71
2023-04-03T12:47:21.673Z,48.42
2023-04-03T12:49:52.649Z,48.01
2023-04-03T12:52:26.755Z,49.64
2023-04-03T12:54:55.361Z,46.98
2023-04-03T12:57:27.030Z,48.37
2023-04-03T12:59:56.323Z,50.13
2023-04-03T13:02:27.431Z,48.43
2023-04-03T13:05:02.013Z,48.26
2023-04-03T13:07:35.834Z,49.28
2023-04-03T13:10:10.184Z,48.92
2023-04-03T13:12:58.557Z,48.50
2023-04-03T13:15:31.413Z,50.75
2023-04-03T13:17:59.872Z,51.31
2023-04-03T13:20:31.819Z,47.55
2023-04-03T13:23:10.155Z,48.52
2023-04-03T13:25:45.695Z,47.78
2023-04-03T13:28:18.565Z,46.22
2023-04-03T13:30:58.980Z,45.51
2023-04-03T13:33:29.545Z,45.99
2023-04-03T13:36:19.476Z,46.86
2023-04-03T13:38:47.691Z,48.16
2023-04-03T13:41:31.462Z,48.67
2023-04-03T13:44:15.824Z,47.04
2023-04-03T13:46:44.886Z,49.14
2023-04-03T13:49:39.145Z,48.84
2023-04-03T13:52:32.073Z,49.93
2023-04-03T13:55:07.896Z,47.32
2023-04-03T13:57:38.151Z,46.59
2023-04-03T14:00:31.261Z,48.85
2023-04-03T14:02:59.886Z,48.61
2023-04-03T14:05:28.599Z,48.18
2023-04-03T14:07:56.801Z,48.83
2023-04-03T14:10:24.853Z,46.77
2023-04-03T14:12:53.305Z,47.94
2023-04-03T14:15:25.574Z,50.27
2023-04-03T14:17:54.219Z,49.21
2023-04-03T14:20:25.517Z,50.51
2023-04-03T14:22:55.019Z,50.35
2023-04-03T14:25:25.152Z,50.31
2023-04-03T14:27:55.066Z,51.18
2023-04-03T14:30:26.748Z,51.07
2023-04-03T14:32:56.029Z,50.41
2023-04-03T14:35:24.953Z,49.59
2023-04-03T14:37:54.591Z,50.66
2023-04-03T14:40:28.581Z,51.14
2023-04-03T14:42:58.868Z,52.46
2023-04-03T14:45:27.519Z,53.85
2023-04-03T14:47:58.178Z,51.15
2023-04-03T14:50:28.681Z,52.93
2023-04-03T14:52:59.811Z,51.36
2023-04-03T14:55:29.174Z,49.12
2023-04-03T14:57:57.417Z,50.10
2023-04-03T15:00:25.539Z,50.96
2023-04-03T15:02:53.851Z,49.80
2023-04-03T15:05:22.172Z,50.61
2023-04-03T15:07:56.767Z,51.47
2023-04-03T15:10:27.805Z,51.38
2023-04-03T15:12:56.876Z,53.05
2023-04-03T15:15:26.187Z,52.29
2023-04-03T15:17:57.830Z,52.25
2023-04-03T15:20:27.810Z,53.49
2023-04-03T15:22:57.558Z,52.65
2023-04-03T15:29:56.266Z,53.79
2023-04-03T15:32:24.903Z,54.57
2023-04-03T15:34:55.959Z,52.67
2023-04-03T15:37:25.272Z,52.53
2023-04-03T15:39:53.119Z,53.03
2023-04-03T15:42:21.705Z,53.56
2023-04-03T15:44:49.569Z,53.51
2023-04-03T15:47:19.408Z,53.03
2023-04-03T15:49:47.481Z,53.44
2023-04-03T15:52:15.610Z,50.78
2023-04-03T15:54:43.566Z,52.56
2023-04-03T15:57:12.026Z,53.28
2023-04-03T15:59:39.785Z,51.51
2023-04-03T16:02:09.312Z,52.22
2023-04-03T16:04:37.688Z,53.76
2023-04-03T16:07:06.630Z,53.70
2023-04-03T16:09:35.331Z,54.52
2023-04-03T16:12:04.992Z,54.74
2023-04-03T16:14:33.789Z,52.27
2023-04-03T16:17:02.523Z,52.12
2023-04-03T16:19:31.094Z,53.44
2023-04-03T16:21:59.377Z,52.06
2023-04-03T16:24:27.441Z,52.32
2023-04-03T16:26:55.556Z,53.53
2023-04-03T16:29:23.430Z,53.44
2023-04-03T16:31:51.975Z,54.23
2023-04-03T16:34:20.333Z,54.42
2023-04-03T16:36:48.996Z,54.68
2023-04-03T16:39:17.148Z,55.02
2023-04-03T16:41:45.434Z,56.10
2023-04-03T16:44:13.350Z,55.59
2023-04-03T16:46:42.085Z,55.64
2023-04-03T16:49:10.476Z,56.47
2023-04-03T16:51:38.523Z,56.73
2023-04-03T16:54:07.971Z,57.21
2023-04-03T16:56:35.972Z,55.74
2023-04-03T16:59:06.062Z,56.56
2023-04-03T17:01:34.291Z,56.68
2023-04-03T17:04:02.431Z,57.97
2023-04-03T17:06:30.921Z,57.45
2023-04-03T17:08:59.151Z,58.33
2023-04-03T17:11:31.135Z,59.06
2023-04-03T17:13:59.882Z,57.18
2023-04-03T17:16:28.966Z,56.97
2023-04-03T17:18:57.185Z,56.63
2023-04-03T17:21:25.480Z,56.51
2023-04-03T17:23:58.829Z,57.36
2023-04-03T17:26:27.843Z,56.53
2023-04-03T17:28:56.015Z,57.13
2023-04-03T17:31:24.505Z,57.19
2023-04-03T17:33:52.006Z,58.47
2023-04-03T17:36:20.323Z,58.57
2023-04-03T17:38:49.046Z,60.23
2023-04-03T17:41:17.516Z,60.93
2023-04-03T17:43:45.553Z,61.90
2023-04-03T17:46:13.907Z,62.02
2023-04-03T17:48:41.848Z,63.39
2023-04-03T17:51:13.182Z,61.78
2023-04-03T17:53:41.373Z,61.75
2023-04-03T17:56:14.947Z,62.33
2023-04-03T17:58:43.572Z,63.11
2023-04-03T18:01:14.451Z,63.16
2023-04-03T18:03:42.820Z,63.84
2023-04-03T18:06:13.197Z,63.52
2023-04-03T18:08:44.884Z,63.29
2023-04-03T18:11:13.652Z,64.88
2023-04-03T18:13:42.386Z,67.13
2023-04-03T18:16:12.135Z,66.17
2023-04-03T18:18:41.052Z,66.39
2023-04-03T18:21:10.461Z,67.59
2023-04-03T18:23:41.446Z,68.98
2023-04-03T18:26:10.627Z,69.72
2023-04-03T18:28:39.365Z,70.81
2023-04-03T18:31:11.031Z,71.49
2023-04-03T18:33:39.226Z,72.59
2023-04-03T18:36:08.432Z,73.63
2023-04-03T18:38:36.361Z,73.82
2023-04-03T18:41:06.059Z,73.33
2023-04-03T18:43:34.542Z,73.53
2023-04-03T18:46:03.078Z,73.77
2023-04-03T18:48:31.326Z,73.84
2023-04-03T18:51:00.743Z,74.71
2023-04-03T18:53:28.972Z,74.12
2023-04-03T18:55:57.040Z,75.23
2023-04-03T18:58:24.993Z,76.00
2023-04-03T19:00:53.478Z,75.84
2023-04-03T19:03:21.476Z,77.26
2023-04-03T19:05:50.020Z,77.49
2023-04-03T19:08:18.231Z,77.64
2023-04-03T19:10:46.891Z,77.62
2023-04-03T19:13:14.954Z,77.46
2023-04-03T19:15:43.745Z,77.99
2023-04-03T19:18:11.672Z,78.48
2023-04-03T19:20:40.155Z,79.33
2023-04-03T19:23:09.012Z,78.50
2023-04-03T19:25:38.697Z,78.65
2023-04-03T19:28:07.458Z,78.50
2023-04-03T19:30:37.564Z,77.53
2023-04-03T19:33:05.878Z,78.84
2023-04-03T19:35:34.363Z,78.68
2023-04-03T19:38:02.202Z,80.81
2023-04-03T19:40:32.429Z,80.64
2023-04-03T19:43:00.296Z,79.47
2023-04-03T19:45:28.782Z,80.58
2023-04-03T19:48:01.553Z,80.97
2023-04-03T19:50:30.600Z,80.45
2023-04-03T19:52:58.618Z,79.95
2023-04-03T19:55:31.539Z,78.81
2023-04-03T19:58:00.123Z,79.66
2023-04-03T20:00:30.403Z,79.41
2023-04-03T20:02:58.338Z,80.04
2023-04-03T20:05:26.571Z,81.56
2023-04-03T20:07:56.260Z,80.83
2023-04-03T20:10:24.804Z,82.20
2023-04-03T20:12:52.747Z,84.72
2023-04-03T20:15:21.010Z,81.16
2023-04-03T20:17:49.849Z,82.32
2023-04-03T20:20:18.964Z,82.32
2023-04-03T20:22:47.016Z,83.20
2023-04-03T20:25:23.947Z,82.63
2023-04-03T20:28:04.262Z,82.93
2023-04-03T20:30:32.917Z,83.50
2023-04-03T20:33:00.917Z,84.02
2023-04-03T20:35:31.065Z,84.56
2023-04-03T20:37:59.876Z,84.80
2023-04-03T20:40:28.126Z,84.95
2023-04-03T20:42:56.444Z,85.07
2023-04-03T20:45:25.130Z,85.36
2023-04-03T20:47:54.199Z,85.26
2023-04-03T20:50:22.656Z,85.26
2023-04-03T20:52:50.657Z,85.58
2023-04-03T20:55:19.046Z,86.86
2023-04-03T20:57:54.382Z,86.63
2023-04-03T21:00:24.347Z,88.13
2023-04-03T21:02:52.178Z,87.52
2023-04-03T21:05:23.572Z,88.17
2023-04-03T21:08:28.877Z,88.02
2023-04-03T21:11:36.921Z,89.37
2023-04-03T21:14:43.037Z,88.35
2023-04-03T21:17:11.390Z,90.59
2023-04-03T21:19:46.731Z,89.95
2023-04-03T21:22:16.456Z,90.92
2023-04-03T21:24:44.904Z,92.18
2023-04-03T21:27:13.600Z,91.16
2023-04-03T21:29:42.379Z,89.98
2023-04-03T21:32:11.116Z,91.48
2023-04-03T21:34:39.524Z,91.69
2023-04-03T21:37:09.673Z,91.52
2023-04-03T21:39:37.555Z,91.77
2023-04-03T21:42:06.879Z,92.82
2023-04-03T21:44:34.884Z,92.82
2023-04-03T21:47:02.973Z,93.29
2023-04-03T21:49:30.587Z,93.44
2023-04-03T21:51:58.871Z,93.51
2023-04-03T21:54:28.051Z,94.24
2023-04-03T21:56:56.274Z,93.81
2023-04-03T21:59:24.657Z,94.42
2023-04-03T22:01:52.832Z,94.49
2023-04-03T22:04:21.565Z,95.01
2023-04-03T22:06:52.980Z,95.55
2023-04-03T22:09:20.620Z,96.67
2023-04-03T22:11:49.442Z,96.62
2023-04-03T22:14:17.380Z,97.19
2023-04-03T22:16:48.803Z,98.06
2023-04-03T22:19:16.839Z,98.42
2023-04-03T22:21:45.334Z,98.66
2023-04-03T22:24:13.834Z,98.67
2023-04-03T22:26:44.712Z,98.80
2023-04-03T22:29:13.451Z,99.82
2023-04-03T22:31:42.531Z,100.00
2023-04-03T22:34:10.991Z,99.78
2023-04-03T22:36:39.702Z,99.94
2023-04-03T22:39:07.556Z,100.00
2023-04-03T22:41:36.256Z,100.00
2023-04-03T22:44:04.172Z,100.00
2023-04-03T22:46:32.585Z,100.00
2023-04-03T22:49:00.324Z,100.00
2023-04-03T22:51:28.142Z,100.00
2023-04-03T22:53:56.083Z,100.00
2023-04-03T22:56:26.128Z,100.00
2023-04-03T22:58:54.292Z,100.00
2023-04-03T23:01:24.313Z,100.00
2023-04-03T23:03:52.639Z,100.00
2023-04-03T23:06:20.401Z,100.00
2023-04-03T23:08:48.061Z,100.00
2023-04-03T23:11:16.715Z,100.00
2023-04-03T23:13:44.522Z,100.00
2023-04-03T23:16:13.272Z,100.00
2023-04-03T23:18:43.793Z,100.00
2023-04-03T23:21:12.187Z,100.00
2023-04-03T23:23:39.594Z,100.00
2023-04-03T23:26:09.893Z,100.00
2023-04-03T23:28:37.850Z,100.00
2023-04-03T23:31:10.557Z,100.00
2023-04-03T23:33:39.316Z,100.00
2023-04-03T23:36:09.104Z,100.00
2023-04-03T23:38:37.643Z,100.00
2023-04-03T23:41:06.265Z,100.00
2023-04-03T23:43:35.127Z,100.00
2023-04-03T23:46:03.807Z,100.00
2023-04-03T23:48:31.686Z,100.00
2023-04-03T23:51:00.097Z,100.00
2023-04-03T23:53:28.835Z,100.00
2023-04-03T23:55:57.154Z,100.00
2023-04-03T23:58:24.963Z,100.00
